Hlavní strana
METAR-TAF:

METAR-TAF

Letiště :

Nuakšott, Mauritánie

zeměpisná šířka: 18-18-36N, zeměpisná délka: 015-58-11W, výška: 3 m

Aktuální stav počasí

Zpráva byla vytvořena před 42 minutami, v 10:00 UTC
Severoseverovýchodní vítr 9 kt
Teplota 23°C
Vlhkost vzduchu 61%
Tlak 1016 hPa
Viditelnost 10 km a více
Žádná oblačnost pod 1500 m, nevyskytují se cumulonimby.

METAR: GQNO 221000Z 02009KT CAVOK 23/15 Q1016 NOSIG

Čas: 10:42 (10:42 UTC)

Předpověď počasí

Zpráva byla vytvořena před 5 hodinami a 42 minutami, v 05:00 UTC
Předpověď platná od 22 v 06 UTC do 23 v 12 UTC
Severoseverozápadní vítr 12 kt
Viditelnost: 7000 m
Pravděpodobnost 30% :
Dočasný
od 22 v 06 UTC do 22 v 10 UTC
Oblačno až skoro zataženo ve výšce 1000 ft

TAF: GQNO 220500Z 2206/2312 34012KT 7000 NSC PROB30 TEMPO 2206/2210 BKN010

Stav a předpovědi počasí z více než 4 000 letišť (zprávy METAR a TAF).

Červené a žluté tečky na mapě představují dostupné meteorologické stanice.

Když kurzor umístíte na tečku, zobrazí se název stanice.

Pak kliknutím zobrazíte stav a předpověď počasí.

Chcete-li změnit mapu, kliknutím na zelené tlačítko se znaménkem +mapu přiblížíte, kliknutím na zelené tlačítko se znaménkem – mapu oddálíte a kliknutím na zelené šipky přejdete na sousední mapy.


METAR-TAF: